x

Bodega Bay - 48nm Nnw Of San Francisco, Ca (46013) Wave Buoy

8:50am - Thu 8th Dec 2016 All times are PST. -8 hours from GMT.

  • Sig Wave height 7.9ft
  • Swell Direction
  • Peak Period 8s
  • Average Period 6s
  • Wind
    20mph, 27mph gusts
  • Sea Temp 52°f
  • Air Temp 49°f
  • Sea Pressure 1017.8mb
  • Bodega Bay - 48nm Nnw Of San Francisco, Ca
  • Bodega Bay - 48nm Nnw Of San Francisco, Ca

More Historic Weather Station data

Upgrade to MSW Pro to gain access to the past 30 days of data for over 8000 Wavebouys and Weather Stations around the globe.

Join Pro

Comparision Forecast

View Surf forecast
   
Thu 12/08 8:50am 8ft 8s 6s 20 27 mph 1017.8mb 52f 49f
8:40am 8ft  -  6s 22 27 mph 1017.5mb 52f 49f
8:30am  -   -   -  22 27 mph 1017.3mb 52f 49f
8:20am  -   -   -  22 27 mph 1017.3mb 52f 49f
8:10am  -   -   -  22 29 mph 1017.3mb 52f 49f
8:00am  -   -   -  22 29 mph 1017.1mb 52f 49f
7:50am 8ft 8s 6s 22 31 mph 1017mb 52f 49f
7:40am  -   -   -  25 29 mph 1016.9mb 52f 48f
7:30am  -   -   -  25 29 mph 1016.9mb - 48f
7:20am  -   -   -  22 29 mph 1016.8mb 52f 48f
7:10am  -   -   -  22 31 mph 1016.9mb 52f 48f
7:00am  -   -   -  22 29 mph 1016.8mb 52f 48f
6:50am 8.5ft 8s 6s 22 29 mph 1016.5mb 52f 48f
6:40am 8.5ft  -  6s 25 31 mph 1016.4mb 52f 48f
6:30am  -   -   -  25 31 mph 1016.4mb 52f 48f
6:20am  -   -   -  25 31 mph 1016.4mb 52f 48f
6:10am  -   -   -  22 29 mph 1016.8mb 52f 48f
6:00am  -   -   -  25 31 mph 1016.4mb 52f 47f
5:50am 9ft 8s 6s 22 29 mph 1016.5mb 52f 47f
5:40am  -   -   -  20 27 mph 1016.5mb 52f 48f
5:30am 9ft  -  6s 18 22 mph 1016.8mb 52f 47f
5:20am  -   -   -  18 25 mph 1016.8mb - 47f
5:10am  -   -   -  25 34 mph 1016.3mb - 47f
5:00am  -   -   -  22 31 mph 1016.2mb - 47f
4:50am 9ft 8s 6s 25 34 mph 1015.9mb 52f 47f
4:40am  -   -   -  27 31 mph 1016mb 52f 47f
4:30am  -   -   -  25 34 mph 1015.9mb 52f 47f
4:20am  -   -   -  25 31 mph 1016mb 52f 47f
4:10am  -   -   -  27 36 mph 1015.9mb 51f 47f
4:00am  -   -   -  27 34 mph 1015.9mb 51f 47f
3:50am 9.5ft 8s 6s 27 34 mph 1015.8mb 51f 47f
3:40am 9.5ft  -  6s 29 34 mph 1015.9mb 51f 47f
3:30am  -   -   -  27 34 mph 1016mb 51f 47f
3:20am  -   -   -  27 34 mph 1016mb 51f 47f
3:10am  -   -   -  27 34 mph 1016mb 51f 47f
3:00am  -   -   -  27 36 mph 1016.1mb 51f 47f
2:50am 9ft 7s 6s 27 34 mph 1016.1mb 51f 47f
2:40am  -   -   -  27 34 mph 1016.4mb 51f 47f
2:30am  -   -   -  29 36 mph 1016.4mb 51f 47f
2:20am  -   -   -  27 34 mph 1016.4mb 51f 47f
2:10am  -   -   -  27 31 mph 1016.5mb 51f 47f
2:00am  -   -   -  27 34 mph 1016.5mb 51f 46f
1:50am 7ft 7s 5s 27 34 mph 1016.5mb 51f 46f
1:40am 7ft  -  5s 27 34 mph 1016.3mb 51f 46f
1:30am  -   -   -  29 36 mph 1016.3mb 51f 46f
1:20am  -   -   -  29 36 mph 1016.3mb 51f 46f
1:10am  -   -   -  29 34 mph 1016.3mb 51f 46f
1:00am  -   -   -  29 34 mph 1016.3mb 51f 46f
12:50am 6ft 7s 5s 29 36 mph 1016.3mb 51f 46f
12:40am 6ft  -  5s 29 34 mph 1016.5mb 51f 46f
12:30am  -   -   -  29 34 mph 1016.5mb 51f 46f
12:20am  -   -   -  29 36 mph 1016.5mb 51f 46f
12:10am  -   -   -  29 36 mph 1016.5mb 51f 46f
12:00am  -   -   -  29 36 mph 1016.6mb 51f 46f
Wed 12/07 11:50pm 7ft 6s 5s 29 34 mph 1016.8mb 51f 46f
11:40pm 7ft  -  5s 29 36 mph 1016.9mb 51f 46f
11:30pm  -   -   -  29 36 mph 1017mb 51f 46f
11:20pm  -   -   -  29 36 mph 1016.9mb 51f 46f
8:30pm  -   -   -  29 34 mph 1017.3mb 51f 45f
8:20pm  -   -   -  29 36 mph 1017.4mb 51f 45f
8:10pm  -   -   -  29 38 mph 1017.5mb 51f 45f
8:00pm  -   -   -  29 36 mph 1017.5mb 51f 45f
7:50pm 5ft 5s 4s 31 38 mph 1017.5mb 51f 45f
7:40pm 5ft  -  4s 31 38 mph 1017.5mb 51f 45f
7:30pm  -   -   -  31 36 mph 1017.6mb 51f 45f
7:20pm  -   -   -  29 38 mph 1017.9mb 51f 45f
7:10pm  -   -   -  31 38 mph 1017.9mb 51f 45f
7:00pm  -   -   -  31 38 mph 1017.8mb 51f 45f
6:50pm 4.5ft 5s 4s 31 38 mph 1017.6mb 51f 45f
6:40pm 4.5ft  -  4s 31 36 mph 1017.6mb 51f 45f
6:30pm  -   -   -  31 36 mph 1017.9mb 51f 45f
6:20pm  -   -   -  29 36 mph 1018.3mb 51f 45f
6:10pm  -   -   -  27 34 mph 1018.4mb 51f 46f
6:00pm  -   -   -  29 36 mph 1018.4mb 51f 46f
5:50pm 4.5ft 11s 5s 27 31 mph 1018.4mb - 46f
5:40pm 4.5ft  -  5s 27 31 mph 1018.5mb 51f 46f
5:30pm  -   -   -  27 31 mph 1018.5mb 51f 47f
5:20pm  -   -   -  25 31 mph 1018.4mb 51f 47f
5:10pm  -   -   -  25 31 mph 1018.4mb 51f 47f
5:00pm  -   -   -  25 31 mph 1018.9mb 51f -
4:50pm 4.5ft  -  5s 25 31 mph 1018.5mb - 47f
4:40pm 4.5ft 11s 5s  -  mph - 51f -
4:30pm  -   -   -  25 31 mph 1018.6mb 51f 49f
4:20pm  -   -   -  22 29 mph 1018.4mb 51f 49f
4:10pm  -   -   -  22 27 mph 1018.4mb - 50f
4:00pm  -   -   -  22 27 mph 1018.3mb 51f 50f
3:50pm 5ft 12s 5s 22 29 mph 1018mb 51f 50f
3:40pm  -   -   -  22 29 mph 1018mb 51f 50f
3:30pm  -   -   -  22 29 mph 1018.1mb 51f 50f
3:20pm  -   -   -  22 31 mph 1018.5mb 51f 50f
3:10pm  -   -   -  25 29 mph 1018.4mb 51f 50f
3:00pm  -   -   -  22 29 mph 1018.5mb 51f 50f
2:50pm 5ft 12s 6s 25 31 mph 1018.5mb 51f 51f
2:40pm 5ft  -  6s 25 29 mph 1018.5mb 51f 51f
2:30pm  -   -   -  25 29 mph 1018.5mb 51f 51f
2:20pm  -   -   -  25 29 mph 1018.5mb 51f 51f
2:10pm  -   -   -  22 29 mph 1018.6mb 51f 51f
2:00pm  -   -   -  22 29 mph 1019mb 51f 51f
1:50pm 5ft 12s 6s 20 27 mph 1019mb 52f 51f
1:40pm  -   -   -  20 25 mph 1019.5mb 52f 50f
1:30pm  -   -   -  18 25 mph 1019.6mb 52f 50f
1:20pm  -   -   -  18 22 mph 1019.8mb 52f 50f
1:10pm  -   -   -  16 20 mph 1020mb 52f 50f
1:00pm  -   -   -  16 20 mph 1020mb 52f 50f
12:50pm 5ft 12s 6s 16 18 mph 1020.1mb 52f 50f
12:40pm 5ft  -  6s 16 18 mph 1020.4mb 52f 50f
12:30pm  -   -   -  13 18 mph 1020.6mb 52f 50f
12:20pm  -   -   -  16 18 mph 1020.5mb 52f 50f
12:10pm  -   -   -  16 20 mph 1020.5mb 52f 50f
12:00pm  -   -   -  16 20 mph 1020.6mb 52f 50f
11:50am 5ft 13s 7s 16 20 mph 1020.8mb 52f 50f
11:40am 5ft  -  7s 16 20 mph 1020.9mb 52f 51f
11:30am  -   -   -  18 22 mph 1020.8mb 52f 51f
11:20am  -   -   -  16 20 mph 1020.8mb - 51f
11:10am  -   -   -  16 20 mph 1021mb 52f 51f
11:00am  -   -   -  16 20 mph 1021.1mb 52f 50f
10:50am 6ft 13s 8s 16 18 mph 1021.5mb 52f 50f
10:40am 6ft  -  8s 16 20 mph 1021.3mb 52f -
10:30am  -   -   -  16 22 mph 1021.3mb 52f 50f
10:20am  -   -   -  16 20 mph 1021.4mb 52f 50f
10:10am  -   -   -  16 20 mph 1021.5mb 52f 50f
10:00am  -   -   -  16 20 mph 1021.5mb 52f 50f
9:50am 6ft 11s 8s 13 18 mph 1021.5mb 52f 49f
9:40am 6ft  -  8s 13 18 mph 1021.6mb 52f 49f
9:30am  -   -   -  13 18 mph 1021.5mb 52f 49f
9:20am  -   -   -  13 18 mph 1021.5mb 52f 49f
9:10am  -   -   -  13 18 mph 1021.5mb 52f 49f
9:00am  -   -   -  13 18 mph 1021.4mb 52f 49f
8:50am 6ft 11s 8s 13 18 mph 1021.5mb 52f 49f
8:40am 6ft  -  8s 13 18 mph 1021.5mb 52f 49f
8:30am  -   -   -  16 20 mph 1021.4mb 52f 49f
8:20am  -   -   -  16 20 mph 1021.5mb 52f 48f
8:10am  -   -   -  16 20 mph 1021.3mb 52f 49f
8:00am  -   -   -  16 20 mph 1021.1mb 52f 49f
7:50am 6ft 13s 8s 13 18 mph 1021.1mb 52f 48f
7:40am  -   -   -  13 18 mph 1021.1mb 52f 48f
7:30am  -   -   -  13 18 mph 1021mb 52f 48f
7:20am  -   -   -  13 18 mph 1021mb 52f 48f
7:10am  -   -   -  13 18 mph 1020.9mb 52f 48f
7:00am  -   -   -  13 18 mph 1021mb 52f 48f
6:50am 7ft  -  8s 16 20 mph 1020.8mb 52f 48f
6:40am 7ft 12s 8s  -  mph - - -
6:30am  -   -   -  13 18 mph 1021mb 52f 48f
6:20am  -   -   -  13 18 mph 1021mb 51f 48f
6:10am  -   -   -  13 18 mph 1020.9mb 51f 48f
6:00am  -   -   -  13 16 mph 1020.8mb 51f 48f
5:50am 7.5ft 12s 9s 13 18 mph 1020.6mb 51f 47f
5:40am  -   -   -  13 18 mph 1020.4mb 51f 47f
5:30am  -   -   -  11 16 mph 1020.4mb 51f 47f
5:20am  -   -   -  11 16 mph 1020.5mb - 47f
5:10am  -   -   -  9 13 mph 1020.4mb 51f 47f
5:00am  -   -   -  11 13 mph 1020.4mb 51f 47f
4:50am 8.5ft 12s 9s 11 13 mph 1020.5mb 51f 48f
4:40am 8.5ft  -  9s 11 16 mph 1020.3mb 51f 48f
4:30am  -   -   -  11 16 mph 1020.1mb - 48f
4:20am  -   -   -  11 16 mph 1020.5mb 51f 48f
4:10am  -   -   -  9 16 mph 1020.5mb 51f 48f
4:00am  -   -   -  9 11 mph 1020.5mb 51f 48f
3:50am 8ft 14s 9s 7 11 mph 1020.8mb 52f 48f
3:40am  -   -   -  7 11 mph 1020.6mb 52f 48f
3:30am  -   -   -  7 11 mph 1020.6mb 52f 48f
3:20am  -   -   -  7 11 mph 1020.6mb 51f 48f
3:10am  -   -   -  7 11 mph 1020.6mb 51f 48f
3:00am  -   -   -  7 11 mph 1020.6mb 52f 48f
2:50am 8ft 13s 9s 7 11 mph 1020.8mb 52f 49f
2:40am 8ft  -  9s 7 11 mph 1020.8mb 52f 49f
2:30am  -   -   -  7 9 mph 1020.9mb 52f 49f
2:20am  -   -   -  7 9 mph 1021mb 52f 49f
2:10am  -   -   -  7 9 mph 1021mb 52f 49f
2:00am  -   -   -  7 9 mph 1020.9mb 52f 49f
1:50am 7.5ft 11s 8s 9 11 mph 1020.9mb 52f 49f
1:40am 7.5ft  -  8s 9 13 mph 1021mb 52f 49f
1:30am  -   -   -  11 13 mph 1020.9mb 52f 49f
1:20am  -   -   -  13 18 mph 1020.9mb 52f 49f
1:10am  -   -   -  13 18 mph 1020.9mb 52f 49f
1:00am  -   -   -  16 18 mph 1021mb 52f 49f
12:50am 7ft 14s 8s 16 18 mph 1021mb 52f 49f
12:40am 7ft  -  8s 13 18 mph 1021mb 52f 50f
12:30am  -   -   -  13 18 mph 1021.1mb 52f 49f
12:20am  -   -   -  13 18 mph 1021.3mb 52f 49f
12:10am  -   -   -  13 18 mph 1021.4mb 52f 49f
12:00am  -   -   -  13 16 mph 1021.3mb 52f 50f
Tue 12/06 11:50pm 6ft 12s 8s 13 18 mph 1021.1mb 52f 49f
11:40pm  -   -   -  13 16 mph 1021.1mb 52f 50f
11:30pm  -   -   -  13 18 mph 1021.1mb 52f 50f
11:20pm  -   -   -  13 18 mph 1021mb 52f 50f
11:10pm  -   -   -  13 18 mph 1021.1mb 52f 50f
11:00pm  -   -   -  13 18 mph 1021.1mb 52f 50f
10:50pm 7ft 14s 8s 16 18 mph 1021mb 52f 50f
10:40pm  -   -   -  18 22 mph 1021mb 52f 50f
10:30pm  -   -   -  18 20 mph 1020.9mb 52f 50f
10:20pm  -   -   -  16 20 mph 1020.8mb 52f 50f
10:10pm  -   -   -  16 20 mph 1020.8mb 52f 50f
10:00pm  -   -   -  18 20 mph 1020.8mb 52f 50f
9:50pm 6ft 14s 7s 18 20 mph 1020.6mb 52f 50f
9:40pm 6ft  -  7s 18 20 mph 1020.5mb 52f 50f
9:30pm  -   -   -  18 22 mph 1020.4mb 52f 50f
9:20pm  -   -   -  18 22 mph 1020.4mb 52f 50f
9:10pm  -   -   -  18 22 mph 1020.4mb 52f 50f
9:00pm  -   -   -  18 22 mph 1020.1mb 52f 50f
8:50pm 5.5ft 13s 6s 18 22 mph 1020.1mb 52f 50f
8:40pm 5.5ft  -  6s 18 22 mph 1020.1mb 52f 50f
8:30pm  -   -   -  18 22 mph 1020.1mb 52f 50f
8:20pm  -   -   -  20 22 mph 1020mb 52f 50f
8:10pm  -   -   -  18 22 mph 1020mb 52f 50f
8:00pm  -   -   -  18 22 mph 1020mb 52f 50f
7:50pm 6.5ft 14s 6s 20 22 mph 1020mb 52f 50f
7:40pm  -   -   -  18 22 mph 1019.9mb 52f 50f
7:30pm  -   -   -  20 25 mph 1020mb 52f 50f
7:20pm  -   -   -  20 25 mph 1019.9mb 52f 50f
7:10pm  -   -   -  20 22 mph 1020mb 52f 51f
7:00pm  -   -   -  20 25 mph 1020mb 52f 51f
6:50pm 7ft 14s 6s 20 25 mph 1019.9mb 52f 51f
5:50pm 7ft 15s 6s 22 27 mph 1019.6mb 52f 51f
4:50pm 7ft 14s 7s 22 27 mph 1019.4mb 52f 51f
4:30pm  -   -   -  20 27 mph 1019mb 52f 51f
4:20pm  -   -   -  20 27 mph 1019mb 52f 51f
4:10pm  -   -   -  20 27 mph 1019mb 52f 51f
4:00pm  -   -   -  20 25 mph 1019mb 52f 51f
3:50pm 7.5ft 15s 7s 20 25 mph 1019mb 52f 51f
3:40pm 7.5ft  -  7s 20 25 mph 1019mb 52f 51f
3:30pm  -   -   -  20 27 mph 1019mb 52f 51f
3:20pm  -   -   -  20 25 mph 1019.1mb 52f 51f
3:10pm  -   -   -  18 22 mph 1019.1mb 52f 51f
3:00pm  -   -   -  18 22 mph 1019.1mb 52f 50f
2:50pm 7.5ft 15s 8s 18 25 mph 1019.1mb 52f 50f
2:40pm 7.5ft  -  8s 18 22 mph 1019.1mb 52f 50f
2:30pm  -   -   -  18 22 mph 1019.1mb 52f 50f
2:20pm  -   -   -  18 22 mph 1019mb 52f 50f
2:10pm  -   -   -  18 22 mph 1019mb 52f 50f
2:00pm  -   -   -  18 22 mph 1019mb 52f 50f
1:50pm 8ft 15s 8s 18 22 mph 1019.1mb 52f 50f
1:40pm  -   -   -  16 20 mph 1019mb 52f 50f
1:30pm  -   -   -  16 20 mph 1019.1mb 52f 50f
1:20pm  -   -   -  16 20 mph 1019.6mb - 50f
1:10pm  -   -   -  13 18 mph 1019.3mb 52f 50f
1:00pm  -   -   -  13 18 mph 1019.3mb 52f 50f
12:50pm 7.5ft 15s 9s 13 18 mph 1019.4mb 52f 50f
12:40pm  -   -   -  11 16 mph 1019.4mb 52f 50f
12:30pm  -   -   -  13 18 mph 1019.4mb 52f 50f
12:20pm  -   -   -  13 16 mph 1019.5mb 52f 50f
12:10pm  -   -   -  11 18 mph 1019.6mb 52f 50f
12:00pm  -   -   -  11 13 mph 1019.8mb 52f 50f
11:50am 8ft 11s 9s 11 16 mph 1019.9mb 52f 50f
11:40am 8ft  -  9s 11 16 mph 1020mb 52f 50f
11:30am  -   -   -  13 16 mph 1020mb 52f 50f
11:20am  -   -   -  13 18 mph 1020mb 52f 50f
11:10am  -   -   -  13 16 mph 1020.1mb 52f 50f
11:00am  -   -   -  13 18 mph 1020.1mb 52f 50f
10:50am 8ft 11s 9s 13 18 mph 1020.1mb 52f 50f
9:50am 8ft  -  9s 13 18 mph 1020.4mb 52f 50f
9:30am  -   -   -  13 18 mph 1020.3mb 52f 50f
9:20am  -   -   -  13 16 mph 1020.3mb 52f 50f
9:10am  -   -   -  13 18 mph 1020.1mb 52f 50f
9:00am  -   -   -  13 18 mph 1020mb 52f 50f
8:50am 7.5ft 13s 8s 13 18 mph 1020mb 52f 50f
8:40am 7.5ft  -  8s 13 18 mph 1019.9mb 52f 50f
8:30am  -   -   -  13 18 mph 1019.9mb 52f 50f
8:20am  -   -   -  13 18 mph 1019.6mb 52f 50f
8:10am  -   -   -  16 20 mph 1019.5mb 52f 50f
8:00am  -   -   -  16 20 mph 1019.5mb 52f 50f
7:50am 7ft 12s 8s 16 20 mph 1019.4mb 52f 50f
7:40am  -   -   -  16 20 mph 1019.4mb 52f 50f
7:30am  -   -   -  16 20 mph 1019.3mb 52f 50f
7:20am  -   -   -  16 20 mph 1019.3mb 52f 50f
7:10am  -   -   -  16 20 mph 1019.3mb 52f 50f
7:00am  -   -   -  16 20 mph 1019.1mb 52f 50f
6:50am 6.5ft 13s 7s 16 20 mph 1019.1mb 52f 50f
6:40am  -   -   -  18 22 mph 1019.3mb 52f 50f
6:30am  -   -   -  18 22 mph 1019mb 52f 50f
6:20am  -   -   -  16 18 mph 1019.1mb 52f 50f
6:10am  -   -   -  13 18 mph 1019mb 52f 50f
6:00am  -   -   -  13 18 mph 1018.9mb 52f 50f
5:50am 7.5ft 12s 7s 13 18 mph 1019mb 52f 50f
5:40am  -   -   -  13 18 mph 1018.9mb 52f 50f
5:30am  -   -   -  16 20 mph 1018.9mb 52f 50f
5:20am  -   -   -  16 20 mph 1018.9mb 52f 50f
5:10am  -   -   -  16 20 mph 1018.9mb 52f 50f
5:00am  -   -   -  18 20 mph 1018.9mb 52f 50f
4:50am 8ft 13s 7s 18 25 mph 1018.9mb 52f 50f
4:40am  -   -   -  20 25 mph 1018.9mb 52f 50f
4:30am  -   -   -  20 25 mph 1019mb 52f 50f
4:20am  -   -   -  20 25 mph 1019mb 52f 50f
4:10am  -   -   -  18 25 mph 1019mb 52f 50f
4:00am  -   -   -  18 25 mph 1019mb 52f 50f
3:50am 8ft 14s 7s 20 27 mph 1019mb 52f 50f
3:40am  -   -   -  25 29 mph 1018.9mb 52f 50f
3:30am  -   -   -  25 31 mph 1018.8mb 52f 50f
3:20am  -   -   -  25 29 mph 1018.8mb 52f 51f
3:10am  -   -   -  25 29 mph 1018.8mb 52f 51f
3:00am  -   -   -  25 31 mph 1018.6mb 52f 50f
2:50am  -   -   -  25 31 mph 1018.6mb 52f 50f
2:40am  -   -   -  25 31 mph 1018.6mb 52f -
2:30am  -   -   -   -  mph 1018.5mb 52f -
2:20am  -   -   -  27 34 mph 1018.6mb 52f 50f
2:10am  -   -   -  27 34 mph 1018.6mb 52f 50f
2:00am  -   -   -  27 34 mph 1018.8mb 52f 50f
1:50am 9ft 14s 7s 27 34 mph 1018.6mb 52f 50f
1:40am 9ft  -  7s 27 34 mph 1018.9mb 52f 50f
1:30am  -   -   -  27 34 mph 1018.8mb 52f 50f
1:20am  -   -   -  27 34 mph 1018.6mb 52f 50f
1:10am  -   -   -  27 34 mph 1018.5mb 52f 50f
1:00am  -   -   -  27 34 mph 1018.5mb 52f 50f
12:50am 10ft 14s 7s 27 34 mph 1018.8mb 52f 50f
12:40am 10ft  -  7s 27 34 mph 1018.8mb 52f 50f
12:30am  -   -   -  29 36 mph 1019mb 52f 50f
12:20am  -   -   -  31 38 mph 1019mb 52f 50f
12:10am  -   -   -  31 40 mph 1019mb 52f 51f
12:00am  -   -   -  29 38 mph 1019mb 52f 50f
Mon 12/05 11:50pm 9.5ft 13s 6s 31 38 mph 1018.9mb 52f 50f
11:40pm 9.5ft  -  6s 29 38 mph 1018.9mb 52f 50f
11:30pm  -   -   -  29 36 mph 1018.9mb 52f 50f
11:20pm  -   -   -  29 36 mph 1018.8mb 52f 50f
11:10pm  -   -   -  29 38 mph 1018.9mb 52f 50f
11:00pm  -   -   -  29 38 mph 1018.9mb 52f 50f
10:50pm 9.5ft 14s 7s 29 36 mph 1018.9mb 52f 50f
10:40pm 9.5ft  -  7s 29 38 mph 1018.8mb 52f 51f
10:30pm  -   -   -  31 38 mph 1018.8mb 52f 51f
10:20pm  -   -   -  29 38 mph 1018.6mb 53f 51f
10:10pm  -   -   -  31 38 mph 1018.5mb 53f 51f
10:00pm  -   -   -  31 38 mph 1018.8mb 53f 51f
9:50pm 9.5ft 11s 6s 29 36 mph 1018.5mb 53f 51f
9:40pm  -   -   -  29 38 mph 1018.5mb 53f 51f
9:30pm  -   -   -  31 38 mph 1018.5mb 53f 51f
9:20pm  -   -   -  29 36 mph 1018.5mb 53f 51f
9:10pm  -   -   -  29 36 mph 1018.4mb 53f 51f
9:00pm  -   -   -  29 36 mph 1018.4mb 53f 51f
8:50pm 10ft 13s 7s 29 36 mph 1018.1mb 53f 51f
8:40pm 10ft  -  7s 29 38 mph 1018.1mb 53f -
8:30pm  -   -   -  27 36 mph 1018mb 53f 51f
8:20pm  -   -   -  29 34 mph 1018mb 53f 51f
8:10pm  -   -   -  27 34 mph 1018mb 53f 51f
8:00pm  -   -   -  25 34 mph 1018mb 53f 51f
7:50pm 10.5ft 14s 7s 27 31 mph 1017.8mb 53f 51f
7:40pm  -   -   -  25 31 mph 1018mb 53f 51f
7:30pm  -   -   -  25 31 mph 1018mb 53f 51f
7:20pm  -   -   -  22 29 mph 1018.3mb 53f 51f
7:10pm  -   -   -  22 27 mph 1018.1mb 53f 51f
7:00pm  -   -   -  20 25 mph 1018.1mb 53f 51f
6:50pm 10ft 13s 7s 20 25 mph 1018mb 53f 51f
6:40pm 10ft  -  7s 20 25 mph 1017.9mb 53f 51f
6:30pm  -   -   -  20 25 mph 1017.8mb 53f 51f
6:20pm  -   -   -  20 25 mph 1017.9mb 53f 51f
6:10pm  -   -   -  22 27 mph 1017.9mb 53f 51f
6:00pm  -   -   -  20 25 mph 1017.9mb 53f 51f
5:50pm 12ft 15s 8s 20 22 mph 1017.6mb 53f 51f
5:40pm  -   -   -  20 25 mph 1017.8mb 53f 51f
5:30pm 12ft  -  8s 20 27 mph 1017.8mb 53f 51f
5:20pm  -   -   -  22 29 mph 1017.8mb 53f 51f
5:10pm  -   -   -  20 27 mph 1017.8mb 53f 51f
5:00pm  -   -   -  22 27 mph 1017.8mb 53f 51f
4:50pm 11ft 13s 8s 22 27 mph 1017.9mb 53f 51f
4:40pm 11ft  -  8s 25 29 mph 1018mb 53f 51f
4:30pm  -   -   -  25 29 mph 1018.1mb 53f 51f
4:20pm  -   -   -  25 31 mph 1018mb 53f 51f
4:10pm  -   -   -  27 31 mph 1018mb 53f 51f
4:00pm  -   -   -  27 34 mph 1018.1mb 53f 51f
3:50pm 12ft 14s 8s 27 34 mph 1018.3mb 53f 51f
3:40pm 12ft  -  8s 29 34 mph 1018.4mb 53f 51f
3:30pm  -   -   -  27 34 mph 1018.4mb 53f 51f
3:20pm  -   -   -  29 36 mph 1018.5mb 53f 51f
3:10pm  -   -   -  29 36 mph 1018.6mb 53f 51f
3:00pm  -   -   -  29 34 mph 1018.9mb 53f 51f
2:50pm 12ft 14s 8s 27 34 mph 1019mb 53f 51f
2:40pm 12ft  -  8s 29 38 mph 1019mb 53f 51f
2:30pm  -   -   -  29 38 mph 1019mb 53f 51f
2:20pm  -   -   -  31 38 mph 1019mb 53f 51f
2:10pm  -   -   -  31 38 mph 1019mb 53f 51f
2:00pm  -   -   -  29 38 mph 1019mb 53f 51f
1:50pm 11.5ft 13s 8s 31 38 mph 1019.1mb 53f 51f
1:40pm 11.5ft  -  8s 29 36 mph 1019.1mb 53f 51f
1:30pm  -   -   -  29 36 mph 1019.4mb 53f 51f
1:20pm  -   -   -  29 36 mph 1019.5mb 53f 51f
1:10pm  -   -   -  29 36 mph 1019.5mb 53f 51f
1:00pm  -   -   -  29 36 mph 1019.4mb 53f 51f
12:50pm 10.5ft 13s 7s 29 36 mph 1019.5mb 53f 51f
12:40pm 10.5ft  -  7s 31 38 mph 1019.5mb 53f 51f
12:30pm  -   -   -  31 38 mph 1019.5mb 53f 51f
12:20pm  -   -   -  31 38 mph 1019.5mb 53f 51f
12:10pm  -   -   -  29 38 mph 1019.5mb 53f 51f
12:00pm  -   -   -  29 36 mph 1019.5mb 53f 51f
11:50am 10ft 14s 7s 29 38 mph 1019.6mb 53f 51f
11:40am  -   -   -  27 34 mph 1019.8mb 53f 51f
11:30am  -   -   -  27 34 mph 1019.9mb 53f 51f
11:20am  -   -   -  29 36 mph 1020mb 53f 51f
11:10am  -   -   -  27 34 mph 1020.3mb 53f 51f
11:00am  -   -   -  29 34 mph 1020.3mb 53f 51f
10:50am 9.5ft 14s 7s 27 36 mph 1020.4mb 53f 51f
10:40am 9.5ft  -  7s 27 36 mph 1020.5mb 53f 51f
10:30am  -   -   -  27 34 mph 1020.5mb 53f 51f
10:20am  -   -   -  29 38 mph 1020.5mb 53f 50f
10:10am  -   -   -  27 36 mph 1020.5mb 53f 51f
10:00am  -   -   -  29 36 mph 1020.5mb 53f 51f
9:50am 10ft 14s 7s 29 36 mph 1020.4mb 53f 51f
9:40am 10ft  -  7s 29 36 mph 1020.4mb 53f 50f
9:30am  -   -   -  29 36 mph 1020.1mb 53f 51f
9:20am  -   -   -  29 36 mph 1020.3mb 53f 50f
9:10am  -   -   -  27 36 mph 1020.1mb 53f 50f
9:00am  -   -   -  29 36 mph 1020.3mb 53f 50f
8:50am 10.5ft 14s 7s 29 36 mph 1020mb 53f 50f
8:40am 10.5ft  -  7s 31 38 mph 1020mb 53f 50f
8:30am  -   -   -  29 38 mph 1019.9mb 53f 51f
8:20am  -   -   -  31 43 mph 1019.9mb 53f 51f
8:10am  -   -   -  31 38 mph 1020mb 53f 51f
8:00am  -   -   -  31 40 mph 1019.8mb 53f 51f
7:50am 10ft 14s 7s 34 40 mph 1019.8mb 53f 51f
7:40am 10ft  -  7s 29 36 mph 1019.6mb 53f 51f
7:30am  -   -   -  29 36 mph 1019.6mb 53f 51f
7:20am  -   -   -  27 36 mph 1019.8mb 53f 51f
7:10am  -   -   -  29 36 mph 1019.6mb 53f 51f
7:00am  -   -   -  29 36 mph 1019.6mb 53f 51f
6:50am 10ft 14s 7s 29 36 mph 1019.6mb 53f 51f
6:40am 10ft  -  7s 29 36 mph 1019.8mb 53f 51f
6:30am  -   -   -  27 36 mph 1019.9mb 53f 51f
6:20am  -   -   -  27 34 mph 1019.6mb 53f 51f
6:10am  -   -   -  27 34 mph 1019.4mb 53f 51f
6:00am  -   -   -  27 34 mph 1019.5mb 53f 51f
5:50am 10ft 14s 7s 27 34 mph 1019.5mb 53f 52f
5:40am 10ft  -  7s 29 34 mph 1019.5mb 53f 52f
5:30am  -   -   -  27 34 mph 1019.4mb 53f 52f
5:20am  -   -   -  25 34 mph 1019.5mb 53f 52f
5:10am  -   -   -  27 34 mph 1019.5mb - 52f
5:00am  -   -   -   -  mph 1019.3mb - 52f
4:50am 9.5ft 14s 7s  -  mph 1019.4mb - 52f
4:40am 9.5ft  -  7s 27 31 mph 1019.4mb 53f 53f
4:30am  -   -   -  25 34 mph 1019.5mb 53f 53f
4:20am  -   -   -  22 29 mph 1019.5mb 53f 53f
4:10am  -   -   -  22 29 mph 1019.5mb 53f 53f
4:00am  -   -   -  25 29 mph 1019.8mb 53f 53f
3:50am 8.5ft 14s 7s 25 29 mph 1019.9mb 53f 53f
3:40am 8.5ft  -  7s 25 34 mph 1019.6mb 53f 53f
3:30am  -   -   -  25 31 mph 1019.8mb 53f 53f
3:20am  -   -   -  25 31 mph 1019.9mb 53f 53f
3:10am  -   -   -  25 29 mph 1019.9mb 53f 53f
3:00am  -   -   -  22 29 mph 1020mb 53f 53f
2:50am 9ft 14s 9s 22 29 mph 1020.1mb 53f 53f
2:40am  -   -   -  20 27 mph 1020.3mb 53f -
2:30am  -   -   -  20 27 mph 1020.3mb 53f 53f
2:20am  -   -   -  20 25 mph 1020.5mb 53f 53f
2:10am  -   -   -  20 27 mph 1020.5mb 53f 52f
2:00am  -   -   -  22 29 mph 1020.5mb 53f 52f
1:50am 9ft 15s 8s 22 29 mph 1020.5mb 53f 53f
1:40am 9ft  -  8s 22 27 mph 1020.4mb 53f 53f
1:30am  -   -   -  20 25 mph 1020.4mb - 53f
1:20am  -   -   -  20 27 mph 1020.5mb 53f 53f
1:10am  -   -   -  18 25 mph 1020.5mb 53f 53f
1:00am  -   -   -  18 22 mph 1020.8mb 53f 53f
12:50am 8.5ft 12s 8s 18 22 mph 1021mb 53f 52f
12:40am 8.5ft  -  8s 20 25 mph 1021mb 53f 53f
12:30am  -   -   -  20 25 mph 1021mb 53f 53f
12:20am  -   -   -  18 22 mph 1021mb 53f 53f
12:10am  -   -   -  16 20 mph 1020.9mb 53f 53f
12:00am  -   -   -  16 20 mph 1021mb 53f 53f
Sun 12/04 11:50pm 8.5ft 13s 8s 18 22 mph 1021.3mb 53f 53f
11:40pm 8.5ft  -  8s 18 22 mph 1021.4mb 53f 53f
11:30pm  -   -   -  18 20 mph 1021.4mb 53f 53f
11:20pm  -   -   -  18 22 mph 1021.3mb 53f 53f
11:10pm  -   -   -  18 22 mph 1021.3mb 53f 53f
11:00pm  -   -   -  18 22 mph 1021.3mb 53f 53f
10:50pm 10.5ft 14s 9s 18 25 mph 1021.3mb 53f 53f
10:40pm  -   -   -  18 22 mph 1021.3mb 53f 53f
10:30pm  -   -   -  18 22 mph 1021.5mb 53f 53f
10:20pm  -   -   -  20 27 mph 1021.5mb 53f 53f
10:10pm  -   -   -  20 27 mph 1021.5mb 53f 53f
10:00pm  -   -   -  20 25 mph 1021.5mb 53f 53f
9:50pm 9ft 14s 8s 20 27 mph 1021.4mb 53f 53f
9:40pm 9ft  -  8s 20 25 mph 1021.3mb 53f 53f
9:30pm  -   -   -  20 25 mph 1021.3mb 53f 53f
9:20pm  -   -   -  20 25 mph 1021.3mb 53f 53f
9:10pm  -   -   -  18 25 mph 1021.1mb 53f 53f
9:00pm  -   -   -  20 25 mph 1021mb 53f 53f
8:50pm 11.5ft 14s 10s 20 27 mph 1021.3mb 53f 53f
8:40pm  -   -   -  20 25 mph 1021.1mb - 53f
8:30pm  -   -   -  20 29 mph 1021mb 53f 53f
8:20pm  -   -   -  20 27 mph 1021.3mb 53f 53f
8:10pm  -   -   -  22 27 mph 1021.4mb 53f 53f
8:00pm  -   -   -  22 29 mph 1021.4mb 53f 53f
7:50pm 8.5ft 14s 9s 22 27 mph 1021.1mb 53f 53f
7:40pm  -   -   -  20 27 mph 1021mb 53f 54f
7:30pm  -   -   -  18 22 mph 1021mb 53f 54f
7:20pm  -   -   -  18 22 mph 1021mb 53f 53f
7:10pm  -   -   -  18 25 mph 1021.3mb 53f 53f
7:00pm  -   -   -  18 25 mph 1021.1mb 53f 53f
6:50pm 10ft 14s 9s 18 22 mph 1020.9mb 53f 53f
6:40pm 10ft  -  9s 20 25 mph 1021mb 53f 53f
6:30pm  -   -   -  18 22 mph 1021.1mb - 53f
6:20pm  -   -   -  18 22 mph 1021mb 53f 53f
6:10pm  -   -   -  18 22 mph 1021mb 53f 53f
6:00pm  -   -   -  20 25 mph 1021mb 53f 53f
5:50pm 9ft 15s 9s 20 27 mph 1021mb 53f 53f
5:40pm  -   -   -  18 25 mph 1021mb 53f 53f